Warren, AR (71671)

8:06 PM CDT on March 24, 2017 (GMT -0500)
Bowser | | Change Station
Active Advisory: Lake Wind Advisory Active Notice: Public Information Statement

Elev 243 ft 33.58 °N, 91.85 °W | Updated 46 seconds ago

Partly Cloudy
Partly Cloudy
74.5 °F
Feels Like 77 °F
N
0.0
Wind Variable Wind from SW
Gusts 0.0 mph

Today
High -- | Low -- °F
--% Chance of Precip.
Yesterday
High -- | Low -- °F
Precip. -- in
Pressure 29.95 in
Visibility 10.0 miles
Clouds Few 5500 ft
Heat Index 77 °F
Dew Point 61 °F
Humidity 62%
Rainfall 0.00 in
Snow Depth Not available.
7:06 AM 7:23 PM
Waning Crescent, 12% visible
METAR KLLQ 250053Z AUTO 18008G14KT 10SM FEW055 24/14 A2995 RMK AO2 SLP140 T02390144
Pressure 29.95 in
Visibility 10.0 miles
Clouds Few 5500 ft
Heat Index 77 °F
Dew Point 61 °F
Humidity 62%
Rainfall 0.00 in
Snow Depth Not available.
7:06 AM 7:23 PM
Waning Crescent, 12% visible
METAR KLLQ 250053Z AUTO 18008G14KT 10SM FEW055 24/14 A2995 RMK AO2 SLP140 T02390144

Get Your Daily Forecast Email!

Thanks for signing up!

Be on the lookout for a verification email in your inbox.

You'll start receiving severe weather alerts in your inbox..

×

10-Day Weather Forecast

Almanac

Astronomy

Mar. 24, 2017 Rise Set
Actual Time
Civil Twilight
Nautical Twilight
Astronomical Twilight
Moon
Length of Visible Light
Length of Day
Tomorrow will be .
, % of the Moon is Illuminated

Today's Extremes

State Highs State Lows

Community

WunderPhotos

Upload Photos

1,962,540 photos uploaded!

WunderBlog® & News

Nearby

Air Quality

  Air Quality AQ Index Pollutant
Not available.

Snow Depth

Station Depth Elevation

Earthquake Activity

City Distance Mag. Time & Date
Minimum magnitude displayed is 2.5.

Earthquake Activity

City Distance Mag. Time & Date
Minimum magnitude displayed is 2.5.

Coastal Water Temperatures

Place Temperature

Stations

Nearby Weather Stations

Station Location Temp. Windchill Dew Point Humidity Wind Precip. Elev Updated Type
                   

Watches & Warnings

Lake Wind Advisory
Issued: 1:59 PM CDT Mar. 24, 2017 – National Weather Service

... Lake Wind Advisory remains in effect until 10 PM CDT this
evening...

* event: expect breezy southerly winds of 15 to 25 mph... with
gusts of 30 to 35 mph possible.

* Areas affected: a large portion of Arkansas.

* Timing: expect the breezy conditions to continue through the
early evening hours. Then expect the breezy conditions to gradually
decrease by late evening.

Precautionary/preparedness actions...

A lake Wind Advisory indicates that winds will cause rough chop
on area lakes and rivers. Small boats will be especially prone to
capsizing. Extra caution should be taken if out on area lakes and
rivers today.